Terminal Aerodrome Forecast
Issued by NWS Greer, SC

Home | Current Version | Previous Version | Text Only | Print | Product List | Glossary On
Versions: 1 2 3 4 5 6 7 8 9 10 11 12 13 14 15 16 17 18 19 20 21 22 23 24 25 26 27 28 29 30 31 32 33 34 35 36 37 38
000
FTUS42 KGSP 260530
TAFAVL
TAF
KAVL 260530Z 2606/2706 14003KT P6SM SCT045 BKN100
     FM260900 32004KT P6SM BKN010
      TEMPO 2609/2613 4SM -RASN
     FM261300 32006KT P6SM BKN015
     FM261500 32010G17KT P6SM BKN015
     FM261900 33013G21KT P6SM BKN025
     FM270000 32013G23KT P6SM BKN050=

USA.gov is the U.S. government's official web portal to all federal, state and local government web resources and services.